Time;durP1;ratioP1;P1;durP2;ratioP2;P2;SDS_P1;SDS_P2;PMS_P1;PMS_P2;Temp;Humidity;BMP_temperature;BMP_pressure;BME280_temperature;BME280_humidity;BME280_pressure;Samples;Min_cycle;Max_cycle;Signal;HPM_P1;HPM_P2
2023/09/29 00:00:17;;;;;;;11.93;10.52;;;;;;;;;;10259309;28;20432;-69
2023/09/29 00:05:17;;;;;;;10.05;8.60;;;;;;;;;;10269007;28;20488;-70
2023/09/29 00:10:16;;;;;;;11.90;10.55;;;;;;;;;;10249680;28;20049;-70
2023/09/29 00:15:14;;;;;;;18.05;10.73;;;;;;;;;;10259467;28;20061;-70
2023/09/29 00:20:33;;;;;;;14.45;10.35;;;;;;;;;;10258901;28;20098;-69
2023/09/29 00:25:28;;;;;;;11.90;9.73;;;;;;;;;;10265754;28;20068;-69
2023/09/29 00:30:24;;;;;;;11.93;10.32;;;;;;;;;;10265050;28;20049;-70
2023/09/29 00:35:24;;;;;;;9.38;8.32;;;;;;;;;;10256956;28;20041;-69
2023/09/29 00:40:22;;;;;;;14.48;10.15;;;;;;;;;;10263180;28;20049;-69
2023/09/29 00:45:25;;;;;;;13.77;10.10;;;;;;;;;;10255508;28;20440;-69
2023/09/29 00:50:23;;;;;;;10.50;9.40;;;;;;;;;;10269297;28;20045;-69
2023/09/29 00:55:22;;;;;;;11.80;10.60;;;;;;;;;;10262986;28;20052;-69
2023/09/29 01:00:29;;;;;;;12.07;10.40;;;;;;;;;;10253793;28;20052;-69
2023/09/29 01:05:26;;;;;;;13.38;10.52;;;;;;;;;;10260130;28;20052;-70
2023/09/29 01:10:24;;;;;;;15.68;10.95;;;;;;;;;;10269285;28;20542;-70
2023/09/29 01:15:20;;;;;;;11.32;10.13;;;;;;;;;;10263672;28;20128;-69
2023/09/29 01:20:24;;;;;;;12.38;10.52;;;;;;;;;;10247021;28;20533;-71
2023/09/29 01:25:21;;;;;;;14.32;9.73;;;;;;;;;;10258432;28;20041;-70
2023/09/29 01:30:18;;;;;;;11.73;9.90;;;;;;;;;;10250484;28;20412;-70
2023/09/29 01:35:21;;;;;;;15.02;10.35;;;;;;;;;;10252858;28;20048;-70
2023/09/29 01:40:20;;;;;;;12.20;10.05;;;;;;;;;;10256948;28;20582;-70
2023/09/29 01:45:18;;;;;;;12.90;10.60;;;;;;;;;;10263983;28;20048;-70
2023/09/29 01:50:16;;;;;;;15.05;10.52;;;;;;;;;;10258381;28;20041;-70
2023/09/29 01:55:16;;;;;;;13.52;9.68;;;;;;;;;;10254502;28;20080;-71
2023/09/29 02:00:23;;;;;;;11.15;10.05;;;;;;;;;;10260939;28;20045;-69
2023/09/29 02:05:20;;;;;;;12.63;10.60;;;;;;;;;;10260759;28;20037;-69
2023/09/29 02:10:19;;;;;;;16.02;10.75;;;;;;;;;;10267156;28;20037;-69
2023/09/29 02:15:16;;;;;;;11.88;10.02;;;;;;;;;;10256530;28;20496;-69
2023/09/29 02:20:17;;;;;;;10.75;9.73;;;;;;;;;;10261700;28;20523;-71
2023/09/29 02:25:15;;;;;;;11.75;10.48;;;;;;;;;;10268281;28;20091;-71
2023/09/29 02:30:12;;;;;;;13.45;10.43;;;;;;;;;;10274218;28;20049;-70
2023/09/29 02:35:09;;;;;;;13.63;10.98;;;;;;;;;;10279796;28;20356;-69
2023/09/29 02:40:07;;;;;;;13.25;10.90;;;;;;;;;;10272488;28;20041;-69
2023/09/29 02:45:05;;;;;;;11.90;9.57;;;;;;;;;;10274347;28;20044;-69
2023/09/29 02:50:01;;;;;;;12.68;11.27;;;;;;;;;;10264640;28;20131;-71
2023/09/29 02:54:58;;;;;;;15.70;11.32;;;;;;;;;;10265057;28;20688;-71
2023/09/29 02:59:54;;;;;;;15.70;11.95;;;;;;;;;;10264613;28;20110;-70
2023/09/29 03:04:51;;;;;;;16.38;13.10;;;;;;;;;;10263593;28;20044;-70
2023/09/29 03:09:48;;;;;;;13.98;12.52;;;;;;;;;;10270584;28;20037;-70
2023/09/29 03:14:45;;;;;;;15.77;12.50;;;;;;;;;;10266649;28;20045;-67
2023/09/29 03:19:42;;;;;;;16.58;12.07;;;;;;;;;;10266344;28;20081;-67
2023/09/29 03:24:38;;;;;;;12.75;11.52;;;;;;;;;;10270860;28;20124;-67
2023/09/29 03:29:35;;;;;;;12.82;11.63;;;;;;;;;;10265420;28;20106;-68
2023/09/29 03:34:31;;;;;;;17.05;12.65;;;;;;;;;;10250450;28;20138;-68
2023/09/29 03:39:28;;;;;;;15.35;13.48;;;;;;;;;;10258201;28;20456;-69
2023/09/29 03:44:24;;;;;;;13.88;12.38;;;;;;;;;;10268606;28;20084;-67
2023/09/29 03:49:20;;;;;;;15.50;12.98;;;;;;;;;;10261770;28;20098;-67
2023/09/29 03:54:18;;;;;;;14.95;13.48;;;;;;;;;;10269611;28;20764;-67
2023/09/29 03:59:14;;;;;;;14.77;13.25;;;;;;;;;;10266495;28;20048;-68
2023/09/29 04:04:11;;;;;;;14.98;13.45;;;;;;;;;;10254249;28;20041;-67
2023/09/29 04:09:08;;;;;;;14.70;13.25;;;;;;;;;;10271649;28;20041;-67
2023/09/29 04:14:04;;;;;;;15.63;14.05;;;;;;;;;;10253399;28;20504;-68
2023/09/29 04:19:01;;;;;;;16.27;14.63;;;;;;;;;;10260197;28;20050;-68
2023/09/29 04:23:57;;;;;;;18.15;15.43;;;;;;;;;;10260205;28;20133;-70
2023/09/29 04:28:54;;;;;;;20.35;14.52;;;;;;;;;;10261025;28;20033;-71
2023/09/29 04:33:51;;;;;;;15.55;14.15;;;;;;;;;;10265078;28;20049;-71
2023/09/29 04:38:47;;;;;;;16.38;14.77;;;;;;;;;;10260271;28;20051;-71
2023/09/29 04:43:44;;;;;;;19.45;14.35;;;;;;;;;;10253434;28;20408;-71
2023/09/29 04:48:40;;;;;;;15.95;14.25;;;;;;;;;;10257803;28;20072;-71
2023/09/29 04:53:36;;;;;;;15.13;13.82;;;;;;;;;;10249884;28;20060;-72
2023/09/29 04:58:33;;;;;;;16.40;13.75;;;;;;;;;;10255704;28;20051;-71
2023/09/29 05:03:29;;;;;;;14.57;13.27;;;;;;;;;;10260175;28;20045;-71
2023/09/29 05:08:25;;;;;;;16.02;14.48;;;;;;;;;;10258890;28;20067;-72
2023/09/29 05:13:22;;;;;;;15.13;13.70;;;;;;;;;;10253841;28;20045;-72
2023/09/29 05:18:18;;;;;;;17.40;15.88;;;;;;;;;;10256892;28;20509;-72
2023/09/29 05:23:14;;;;;;;16.45;14.85;;;;;;;;;;10244067;28;20052;-72
2023/09/29 05:28:11;;;;;;;16.55;14.93;;;;;;;;;;10256586;28;20120;-72
2023/09/29 05:33:08;;;;;;;17.90;16.08;;;;;;;;;;10252112;28;20053;-72
2023/09/29 05:38:04;;;;;;;16.88;15.23;;;;;;;;;;10254892;28;20451;-72
2023/09/29 05:43:00;;;;;;;18.52;16.15;;;;;;;;;;10256996;28;20496;-73
2023/09/29 05:47:57;;;;;;;18.90;15.20;;;;;;;;;;10262429;28;20516;-72
2023/09/29 05:52:54;;;;;;;16.73;14.95;;;;;;;;;;10258885;28;20051;-72
2023/09/29 05:58:04;;;;;;;17.13;15.55;;;;;;;;;;10258425;28;20605;-72
2023/09/29 06:03:01;;;;;;;17.48;15.68;;;;;;;;;;10252992;28;20087;-72
2023/09/29 06:07:58;;;;;;;18.15;16.35;;;;;;;;;;10246470;28;20505;-73
2023/09/29 06:12:54;;;;;;;17.35;14.98;;;;;;;;;;10245370;28;20076;-72
2023/09/29 06:17:51;;;;;;;17.60;15.55;;;;;;;;;;10259829;28;20472;-73
2023/09/29 06:22:47;;;;;;;18.50;15.68;;;;;;;;;;10256043;28;20037;-72
2023/09/29 06:27:43;;;;;;;17.77;15.45;;;;;;;;;;10262820;28;20037;-72
2023/09/29 06:32:41;;;;;;;17.13;15.02;;;;;;;;;;10262227;28;20060;-72
2023/09/29 06:37:37;;;;;;;17.30;14.95;;;;;;;;;;10265934;28;20129;-72
2023/09/29 06:42:33;;;;;;;17.17;15.38;;;;;;;;;;10254073;28;20049;-73
2023/09/29 06:47:30;;;;;;;23.50;15.73;;;;;;;;;;10259211;28;20049;-72
2023/09/29 06:52:26;;;;;;;16.50;14.32;;;;;;;;;;10254842;28;20046;-72
2023/09/29 06:57:23;;;;;;;16.27;14.73;;;;;;;;;;10245206;28;20081;-73
2023/09/29 07:02:19;;;;;;;16.60;15.02;;;;;;;;;;10265781;28;20049;-72
2023/09/29 07:07:15;;;;;;;16.90;14.57;;;;;;;;;;10271157;28;20041;-72
2023/09/29 07:12:12;;;;;;;18.25;14.07;;;;;;;;;;10268539;28;20053;-72
2023/09/29 07:17:08;;;;;;;23.98;14.60;;;;;;;;;;10263745;28;20115;-72
2023/09/29 07:22:04;;;;;;;19.70;15.45;;;;;;;;;;10265073;28;20083;-73
2023/09/29 07:27:01;;;;;;;17.95;15.13;;;;;;;;;;10264869;28;20576;-72
2023/09/29 07:31:59;;;;;;;20.23;14.73;;;;;;;;;;10268963;28;20111;-73
2023/09/29 07:36:56;;;;;;;22.13;15.05;;;;;;;;;;10266418;28;20058;-72
2023/09/29 07:41:52;;;;;;;15.52;14.02;;;;;;;;;;10265425;28;20095;-72
2023/09/29 07:46:52;;;;;;;17.20;15.45;;;;;;;;;;10255391;28;20075;-72
2023/09/29 07:51:49;;;;;;;15.98;14.35;;;;;;;;;;10245284;28;20049;-72
2023/09/29 07:56:49;;;;;;;18.02;14.68;;;;;;;;;;10258277;28;20041;-72
2023/09/29 08:01:49;;;;;;;16.50;14.80;;;;;;;;;;10267396;28;20086;-72
2023/09/29 08:06:46;;;;;;;15.15;13.60;;;;;;;;;;10266595;28;20055;-72
2023/09/29 08:11:42;;;;;;;19.15;14.40;;;;;;;;;;10269102;28;20077;-72
2023/09/29 08:16:39;;;;;;;16.63;13.98;;;;;;;;;;10265084;28;20813;-72
2023/09/29 08:21:35;;;;;;;16.50;14.68;;;;;;;;;;10267912;28;20068;-72
2023/09/29 08:26:32;;;;;;;17.05;14.02;;;;;;;;;;10262542;28;20639;-72
2023/09/29 08:31:28;;;;;;;14.90;13.50;;;;;;;;;;10256500;28;20497;-72
2023/09/29 08:36:25;;;;;;;15.13;13.52;;;;;;;;;;10270528;28;20130;-72
2023/09/29 08:41:25;;;;;;;17.10;13.65;;;;;;;;;;10263572;28;20427;-71
2023/09/29 08:46:21;;;;;;;17.73;13.55;;;;;;;;;;10256790;28;20044;-73
2023/09/29 08:51:18;;;;;;;16.95;13.02;;;;;;;;;;10264559;28;20041;-72
2023/09/29 08:56:16;;;;;;;15.27;13.68;;;;;;;;;;10265679;28;20598;-72
2023/09/29 09:01:12;;;;;;;14.68;13.18;;;;;;;;;;10250213;28;20037;-72
2023/09/29 09:11:21;;;;;;;12.57;11.33;;;;;;;;;;9851524;26;20030;-72
2023/09/29 09:16:17;;;;;;;16.70;11.88;;;;;;;;;;10223355;28;20123;-73
2023/09/29 09:21:15;;;;;;;13.63;11.60;;;;;;;;;;10213022;28;20046;-72
2023/09/29 09:42:27;;;;;;;18.58;12.27;;;;;;;;;;10299576;28;20068;-72
2023/09/29 09:47:27;;;;;;;10.90;9.80;;;;;;;;;;10283312;28;20056;-73
2023/09/29 09:52:28;;;;;;;12.93;11.60;;;;;;;;;;10262112;28;20118;-74
2023/09/29 09:57:34;;;;;;;14.02;12.30;;;;;;;;;;10256730;28;20695;-73
2023/09/29 10:02:33;;;;;;;13.77;12.27;;;;;;;;;;10255570;28;20041;-73
2023/09/29 10:18:17;;;;;;;16.30;12.00;;;;;;;;;;10238357;28;20721;-72
2023/09/29 10:30:00;;;;;;;;;;;;;;;;;;;;;
2023/09/29 10:35:19;;;;;;;11.75;10.70;;;;;;;;;;10203552;28;20041;-72
2023/09/29 10:40:22;;;;;;;10.07;9.05;;;;;;;;;;10239263;28;20099;-72
2023/09/29 10:45:28;;;;;;;11.00;8.98;;;;;;;;;;10257725;28;20053;-74
2023/09/29 10:50:24;;;;;;;9.48;7.97;;;;;;;;;;10260016;28;20080;-74
2023/09/29 11:19:30;;;;;;;9.05;8.18;;;;;;;;;;10208019;28;20113;-74
2023/09/29 11:24:48;;;;;;;9.27;8.25;;;;;;;;;;10226640;28;20697;-74
2023/09/29 11:29:45;;;;;;;11.82;8.43;;;;;;;;;;10306476;28;20056;-74
2023/09/29 11:34:41;;;;;;;11.95;8.95;;;;;;;;;;10298791;28;20052;-74
2023/09/29 11:39:37;;;;;;;10.70;9.27;;;;;;;;;;10313190;28;20056;-73
2023/09/29 11:44:35;;;;;;;11.77;8.32;;;;;;;;;;10312376;28;20068;-73
2023/09/29 11:49:31;;;;;;;10.30;8.30;;;;;;;;;;10307433;28;20098;-73
2023/09/29 11:54:27;;;;;;;9.95;8.85;;;;;;;;;;10314170;28;20052;-73
2023/09/29 11:59:24;;;;;;;11.68;8.63;;;;;;;;;;10293634;28;20155;-73
2023/09/29 12:04:20;;;;;;;10.32;9.32;;;;;;;;;;10296145;28;20052;-70
2023/09/29 12:09:17;;;;;;;11.30;9.15;;;;;;;;;;10311648;28;20515;-73
2023/09/29 12:14:14;;;;;;;10.63;8.70;;;;;;;;;;10321336;28;20048;-74
2023/09/29 12:19:12;;;;;;;9.60;8.70;;;;;;;;;;10308358;28;20079;-74
2023/09/29 12:24:09;;;;;;;10.23;8.63;;;;;;;;;;10305636;28;20075;-71
2023/09/29 12:29:05;;;;;;;9.88;8.98;;;;;;;;;;10304671;28;20040;-74
2023/09/29 12:34:04;;;;;;;9.02;8.20;;;;;;;;;;10311940;28;20179;-73
2023/09/29 12:39:00;;;;;;;9.02;8.23;;;;;;;;;;10300114;28;20392;-73
2023/09/29 12:43:56;;;;;;;9.13;8.30;;;;;;;;;;10302928;28;20052;-74
2023/09/29 12:54:57;;;;;;;11.00;8.52;;;;;;;;;;10251713;28;20401;-74
2023/09/29 12:59:53;;;;;;;11.43;10.23;;;;;;;;;;10350879;28;20048;-73
2023/09/29 13:16:33;;;;;;;9.13;8.23;;;;;;;;;;10165567;23;20425;-72
2023/09/29 13:21:33;;;;;;;9.30;8.50;;;;;;;;;;10221513;28;20645;-72
2023/09/29 13:26:30;;;;;;;9.82;8.90;;;;;;;;;;10232949;28;20061;-72
2023/09/29 13:31:26;;;;;;;9.07;8.18;;;;;;;;;;10253483;28;20363;-72
2023/09/29 13:36:23;;;;;;;9.10;8.20;;;;;;;;;;10253532;28;20137;-72
2023/09/29 13:41:19;;;;;;;8.38;7.57;;;;;;;;;;10258016;28;20045;-72
2023/09/29 13:51:47;;;;;;;11.70;8.13;;;;;;;;;;10265470;22;20736;-72
2023/09/29 13:57:20;;;;;;;10.07;7.40;;;;;;;;;;10516886;22;20048;-72
2023/09/29 14:02:16;;;;;;;8.40;7.45;;;;;;;;;;10238527;28;20046;-71
2023/09/29 14:07:13;;;;;;;8.57;7.68;;;;;;;;;;10292867;28;20048;-72
2023/09/29 14:12:09;;;;;;;7.95;7.20;;;;;;;;;;10312149;28;20431;-72
2023/09/29 14:17:06;;;;;;;8.32;7.65;;;;;;;;;;10316931;28;20431;-70
2023/09/29 14:22:02;;;;;;;8.82;7.90;;;;;;;;;;10305578;28;20440;-71
2023/09/29 14:26:59;;;;;;;8.23;7.40;;;;;;;;;;10336832;22;20052;-70
2023/09/29 14:31:55;;;;;;;8.55;7.78;;;;;;;;;;10414347;27;20077;-67
2023/09/29 14:36:52;;;;;;;8.88;7.88;;;;;;;;;;10389105;27;20040;-68
2023/09/29 14:41:49;;;;;;;8.98;8.10;;;;;;;;;;10363889;28;20132;-69
2023/09/29 14:46:45;;;;;;;9.10;8.10;;;;;;;;;;10374820;28;20063;-70
2023/09/29 14:51:41;;;;;;;10.30;7.95;;;;;;;;;;10371919;28;20044;-70
2023/09/29 14:56:38;;;;;;;8.93;7.60;;;;;;;;;;10350598;28;20044;-70
2023/09/29 15:01:34;;;;;;;8.52;7.63;;;;;;;;;;10350818;28;20522;-70
2023/09/29 15:06:32;;;;;;;11.82;7.53;;;;;;;;;;10399245;22;20147;-70
2023/09/29 15:11:28;;;;;;;11.52;7.38;;;;;;;;;;10337572;28;20063;-70
2023/09/29 15:21:40;;;;;;;11.18;7.97;;;;;;;;;;10002145;26;20055;-70
2023/09/29 15:27:20;;;;;;;;;;;;;;;;;;;;;
2023/09/29 15:32:38;;;;;;;10.63;7.68;;;;;;;;;;10390553;27;20051;-70
2023/09/29 15:42:39;;;;;;;11.02;7.53;;;;;;;;;;10416504;22;20137;-72
2023/09/29 15:47:36;;;;;;;12.10;7.80;;;;;;;;;;10392779;27;20090;-69
2023/09/29 15:52:32;;;;;;;9.63;8.80;;;;;;;;;;10379186;27;20060;-70
2023/09/29 15:57:29;;;;;;;11.98;8.68;;;;;;;;;;10380592;28;20473;-68
2023/09/29 16:02:25;;;;;;;9.32;8.32;;;;;;;;;;10377432;27;20052;-70
2023/09/29 16:07:23;;;;;;;12.38;9.00;;;;;;;;;;10376988;27;20058;-69
2023/09/29 16:12:19;;;;;;;11.02;8.75;;;;;;;;;;10343510;28;20117;-69
2023/09/29 16:17:16;;;;;;;14.73;8.73;;;;;;;;;;10388114;28;20140;-69
2023/09/29 16:22:13;;;;;;;9.25;8.43;;;;;;;;;;10368537;28;20044;-70
2023/09/29 16:27:12;;;;;;;10.05;9.15;;;;;;;;;;10393906;27;20055;-70
2023/09/29 16:32:11;;;;;;;10.32;9.27;;;;;;;;;;10369208;28;20717;-71
2023/09/29 16:37:26;;;;;;;10.88;9.75;;;;;;;;;;10382161;28;20393;-71
2023/09/29 16:42:23;;;;;;;11.90;10.80;;;;;;;;;;10378727;27;20039;-70
2023/09/29 16:47:19;;;;;;;15.60;12.93;;;;;;;;;;10375228;28;20047;-70
2023/09/29 16:52:15;;;;;;;11.75;10.68;;;;;;;;;;10375603;28;20542;-69
2023/09/29 16:57:12;;;;;;;12.48;11.38;;;;;;;;;;10385696;27;20446;-69
2023/09/29 17:02:08;;;;;;;9.45;8.65;;;;;;;;;;10384755;28;20051;-71
2023/09/29 17:07:04;;;;;;;10.80;9.80;;;;;;;;;;10380666;28;20131;-71
2023/09/29 17:12:01;;;;;;;10.50;9.60;;;;;;;;;;10375201;28;20075;-70
2023/09/29 17:16:58;;;;;;;9.98;8.13;;;;;;;;;;10372284;28;20043;-71
2023/09/29 17:21:54;;;;;;;9.23;8.52;;;;;;;;;;10385274;28;20143;-71
2023/09/29 17:26:51;;;;;;;9.30;8.60;;;;;;;;;;10378876;28;20403;-71
2023/09/29 17:31:48;;;;;;;9.52;8.68;;;;;;;;;;10369539;27;20055;-70
2023/09/29 17:36:44;;;;;;;9.00;8.25;;;;;;;;;;10366312;28;20105;-71
2023/09/29 17:41:42;;;;;;;8.82;8.13;;;;;;;;;;10381830;27;20133;-71
2023/09/29 17:46:39;;;;;;;8.77;8.10;;;;;;;;;;10377493;28;20056;-72
2023/09/29 17:51:35;;;;;;;10.02;9.32;;;;;;;;;;10380884;28;20051;-72
2023/09/29 17:56:32;;;;;;;9.07;8.27;;;;;;;;;;10374076;27;20078;-72
2023/09/29 18:01:28;;;;;;;9.30;8.70;;;;;;;;;;10373123;28;20518;-71
2023/09/29 18:06:25;;;;;;;10.38;9.50;;;;;;;;;;10377391;27;20059;-71
2023/09/29 18:11:22;;;;;;;10.20;9.23;;;;;;;;;;10378655;28;20063;-72
2023/09/29 18:16:18;;;;;;;9.25;8.43;;;;;;;;;;10370629;28;20863;-72
2023/09/29 18:21:14;;;;;;;9.25;8.40;;;;;;;;;;10351004;28;20051;-71
2023/09/29 18:26:11;;;;;;;10.35;8.63;;;;;;;;;;10380558;28;20537;-72
2023/09/29 18:31:08;;;;;;;8.77;8.07;;;;;;;;;;10382460;28;20066;-72
2023/09/29 18:36:06;;;;;;;8.98;8.27;;;;;;;;;;10388422;28;20466;-71
2023/09/29 18:41:02;;;;;;;9.15;7.88;;;;;;;;;;10379810;28;20086;-70
2023/09/29 18:45:59;;;;;;;9.95;7.88;;;;;;;;;;10369550;28;20044;-71
2023/09/29 18:51:05;;;;;;;13.23;8.75;;;;;;;;;;10370825;28;20043;-72
2023/09/29 18:56:01;;;;;;;9.45;8.55;;;;;;;;;;10355347;28;20052;-70
2023/09/29 19:00:58;;;;;;;15.52;8.60;;;;;;;;;;10380444;28;20044;-70
2023/09/29 19:06:25;;;;;;;;;;;;;;;;;;;;;
2023/09/29 19:11:45;;;;;;;9.30;8.07;;;;;;;;;;10341672;28;20056;-70
2023/09/29 19:16:42;;;;;;;11.90;8.05;;;;;;;;;;10349872;28;20098;-70
2023/09/29 19:21:38;;;;;;;14.70;7.88;;;;;;;;;;10347091;28;20075;-70
2023/09/29 19:26:35;;;;;;;10.57;7.80;;;;;;;;;;10335898;28;20576;-70
2023/09/29 19:31:33;;;;;;;11.85;8.98;;;;;;;;;;10342835;28;20082;-71
2023/09/29 19:36:30;;;;;;;12.13;7.80;;;;;;;;;;10345746;28;20527;-70
2023/09/29 19:41:27;;;;;;;14.82;8.25;;;;;;;;;;10337425;28;20105;-70
2023/09/29 19:46:26;;;;;;;11.15;7.97;;;;;;;;;;10338637;28;20121;-70
2023/09/29 19:51:22;;;;;;;14.38;8.15;;;;;;;;;;10333561;28;20074;-70
2023/09/29 19:56:21;;;;;;;16.52;8.52;;;;;;;;;;10327817;28;20106;-66
2023/09/29 20:01:17;;;;;;;16.80;8.20;;;;;;;;;;10339140;28;20055;-66
2023/09/29 20:06:13;;;;;;;14.75;7.63;;;;;;;;;;10348739;28;20444;-67
2023/09/29 20:11:10;;;;;;;13.32;8.23;;;;;;;;;;10312689;28;20107;-67
2023/09/29 20:16:07;;;;;;;16.67;8.55;;;;;;;;;;10319460;28;20075;-66
2023/09/29 20:21:03;;;;;;;14.40;8.25;;;;;;;;;;10336241;28;20135;-66
2023/09/29 20:26:00;;;;;;;19.77;8.98;;;;;;;;;;10337391;28;20480;-66
2023/09/29 20:30:56;;;;;;;17.45;8.95;;;;;;;;;;10318545;28;20056;-66
2023/09/29 20:35:52;;;;;;;15.80;8.40;;;;;;;;;;10327775;28;20107;-67
2023/09/29 20:40:49;;;;;;;17.25;8.90;;;;;;;;;;10327438;28;20424;-67
2023/09/29 20:45:46;;;;;;;19.33;9.20;;;;;;;;;;10340292;28;20642;-68
2023/09/29 20:50:42;;;;;;;15.18;8.95;;;;;;;;;;10339332;28;20566;-66
2023/09/29 20:55:39;;;;;;;11.88;8.68;;;;;;;;;;10341617;28;20478;-66
2023/09/29 21:00:35;;;;;;;16.08;9.02;;;;;;;;;;10333418;28;20091;-67
2023/09/29 21:05:32;;;;;;;15.55;8.73;;;;;;;;;;10340674;28;20060;-66
2023/09/29 21:10:28;;;;;;;17.63;8.73;;;;;;;;;;10343586;28;20511;-67
2023/09/29 21:15:24;;;;;;;23.15;9.57;;;;;;;;;;10340448;28;20052;-67
2023/09/29 21:20:21;;;;;;;19.45;10.27;;;;;;;;;;10326226;28;20074;-67
2023/09/29 21:25:17;;;;;;;15.70;9.02;;;;;;;;;;10334653;28;20052;-67
2023/09/29 21:30:14;;;;;;;23.42;8.27;;;;;;;;;;10323435;28;20098;-67
2023/09/29 21:35:11;;;;;;;15.43;8.57;;;;;;;;;;10338474;28;20048;-66
2023/09/29 21:40:10;;;;;;;19.27;8.88;;;;;;;;;;10328347;28;20723;-67
2023/09/29 21:45:06;;;;;;;12.98;8.27;;;;;;;;;;10348577;28;20515;-67
2023/09/29 21:50:03;;;;;;;15.48;7.93;;;;;;;;;;10320967;28;20094;-64
2023/09/29 21:54:59;;;;;;;19.77;8.63;;;;;;;;;;10333380;28;20060;-67
2023/09/29 21:59:56;;;;;;;17.73;8.27;;;;;;;;;;10332511;28;20051;-64
2023/09/29 22:04:52;;;;;;;16.70;8.50;;;;;;;;;;10333203;28;20048;-67
2023/09/29 22:09:48;;;;;;;16.02;8.13;;;;;;;;;;10331814;28;20098;-67
2023/09/29 22:14:45;;;;;;;14.63;7.20;;;;;;;;;;10340508;28;20056;-67
2023/09/29 22:19:42;;;;;;;19.13;7.93;;;;;;;;;;10343375;28;20060;-67
2023/09/29 22:24:38;;;;;;;14.43;7.93;;;;;;;;;;10322964;28;20132;-66
2023/09/29 22:29:35;;;;;;;15.63;7.93;;;;;;;;;;10338968;28;20503;-66
2023/09/29 22:34:31;;;;;;;17.20;8.23;;;;;;;;;;10337808;28;20048;-66
2023/09/29 22:39:27;;;;;;;14.07;8.63;;;;;;;;;;10337144;28;20515;-63
2023/09/29 22:44:39;;;;;;;24.20;8.97;;;;;;;;;;10329603;28;20749;-65
2023/09/29 22:49:36;;;;;;;17.65;7.75;;;;;;;;;;10338644;28;20474;-68
2023/09/29 22:54:32;;;;;;;18.55;7.72;;;;;;;;;;10337615;28;20114;-69
2023/09/29 22:59:28;;;;;;;21.15;7.95;;;;;;;;;;10352030;28;20047;-70
2023/09/29 23:04:25;;;;;;;15.90;8.55;;;;;;;;;;10346998;28;20131;-68
2023/09/29 23:09:24;;;;;;;16.05;8.32;;;;;;;;;;10346301;28;20075;-66
2023/09/29 23:14:21;;;;;;;20.73;8.43;;;;;;;;;;10323904;28;20044;-68
2023/09/29 23:19:18;;;;;;;20.42;8.52;;;;;;;;;;10341034;28;20044;-68
2023/09/29 23:24:14;;;;;;;17.50;8.20;;;;;;;;;;10338353;28;20102;-66
2023/09/29 23:29:11;;;;;;;15.38;8.90;;;;;;;;;;10344077;28;20048;-65
2023/09/29 23:34:07;;;;;;;18.42;8.50;;;;;;;;;;10331483;28;20453;-66
2023/09/29 23:39:07;;;;;;;18.33;9.88;;;;;;;;;;10341287;28;20128;-69
2023/09/29 23:44:04;;;;;;;13.88;8.82;;;;;;;;;;10332849;28;20109;-69
2023/09/29 23:49:00;;;;;;;17.85;9.30;;;;;;;;;;10339519;28;20040;-69
2023/09/29 23:53:56;;;;;;;15.43;8.77;;;;;;;;;;10343353;28;20053;-69
2023/09/29 23:58:55;;;;;;;23.65;9.82;;;;;;;;;;10327187;28;20055;-68
